createdAt,value
2019-04-10T00:00:35.091Z,0.00
2019-04-10T00:01:34.787Z,0.00
2019-04-10T00:02:34.810Z,0.00
2019-04-10T00:03:37.903Z,0.00
2019-04-10T00:04:34.873Z,0.00
2019-04-10T00:05:36.076Z,0.00
2019-04-10T00:06:34.911Z,0.00
2019-04-10T00:07:34.935Z,0.00
2019-04-10T00:08:34.963Z,0.00
2019-04-10T00:09:35.004Z,0.00
2019-04-10T00:10:36.121Z,0.00
2019-04-10T00:11:35.042Z,0.00
2019-04-10T00:12:35.970Z,0.00
2019-04-10T00:13:35.093Z,0.00
2019-04-10T00:14:35.118Z,0.00
2019-04-10T00:15:35.142Z,0.00
2019-04-10T00:16:36.124Z,0.00
2019-04-10T00:17:35.425Z,0.00
2019-04-10T00:18:35.225Z,0.00
2019-04-10T00:19:35.922Z,0.00
2019-04-10T00:20:36.420Z,0.00
2019-04-10T00:21:35.515Z,0.00
2019-04-10T00:22:35.960Z,0.00
2019-04-10T00:23:35.360Z,0.00
2019-04-10T00:24:35.719Z,0.00
2019-04-10T00:25:35.396Z,0.00
2019-04-10T00:26:35.425Z,0.00
2019-04-10T00:27:35.447Z,0.00
2019-04-10T00:28:35.902Z,0.00
2019-04-10T00:29:36.315Z,0.00
2019-04-10T00:30:35.525Z,0.00
2019-04-10T00:31:35.550Z,0.00
2019-04-10T00:32:36.245Z,0.00
2019-04-10T00:33:36.541Z,0.00
2019-04-10T00:34:35.876Z,0.00
2019-04-10T00:35:35.653Z,0.00
2019-04-10T00:36:35.679Z,0.00
2019-04-10T00:37:35.707Z,0.00
2019-04-10T00:38:35.896Z,0.00
2019-04-10T00:39:36.857Z,0.00
2019-04-10T00:40:35.779Z,0.00
2019-04-10T00:41:36.518Z,0.00
2019-04-10T00:42:36.945Z,0.00
2019-04-10T00:43:35.855Z,0.00
2019-04-10T00:44:35.973Z,0.00
2019-04-10T00:45:35.908Z,0.00
2019-04-10T00:46:35.932Z,0.00
2019-04-10T00:47:35.958Z,0.00
2019-04-10T00:48:36.275Z,0.00
2019-04-10T00:49:36.012Z,0.00
2019-04-10T00:50:36.946Z,0.00
2019-04-10T00:51:36.060Z,0.00
2019-04-10T00:52:36.572Z,0.00
2019-04-10T00:53:37.058Z,0.00
2019-04-10T00:54:37.071Z,0.00
2019-04-10T00:55:36.164Z,0.00
2019-04-10T00:56:36.843Z,0.00
2019-04-10T00:57:37.146Z,0.00
2019-04-10T00:58:37.436Z,0.00
2019-04-10T00:59:36.610Z,0.00
2019-04-10T01:00:37.003Z,0.00
2019-04-10T01:01:37.558Z,0.00
2019-04-10T01:02:36.621Z,0.00
2019-04-10T01:03:36.464Z,0.00
2019-04-10T01:04:36.392Z,0.00
2019-04-10T01:05:37.521Z,0.00
2019-04-10T01:06:36.445Z,0.00
2019-04-10T01:07:39.554Z,0.00
2019-04-10T01:08:37.062Z,0.00
2019-04-10T01:09:37.505Z,0.00
2019-04-10T01:10:36.806Z,0.00
2019-04-10T01:11:36.573Z,0.00
2019-04-10T01:12:36.596Z,0.00
2019-04-10T01:13:36.967Z,0.00
2019-04-10T01:14:36.650Z,0.00
2019-04-10T01:15:36.671Z,0.00
2019-04-10T01:16:37.722Z,0.00
2019-04-10T01:17:36.730Z,0.00
2019-04-10T01:18:37.439Z,0.00
2019-04-10T01:19:36.774Z,0.00
2019-04-10T01:20:37.764Z,0.00
2019-04-10T01:21:36.866Z,0.00
2019-04-10T01:22:36.854Z,0.00
2019-04-10T01:23:37.917Z,0.00
2019-04-10T01:24:37.642Z,0.00
2019-04-10T01:25:36.930Z,0.00
2019-04-10T01:26:37.138Z,0.00
2019-04-10T01:27:36.979Z,0.00
2019-04-10T01:28:37.011Z,0.00
2019-04-10T01:29:37.733Z,0.00
2019-04-10T01:30:38.120Z,0.00
2019-04-10T01:31:37.297Z,0.00
2019-04-10T01:32:37.108Z,0.00
2019-04-10T01:33:37.133Z,0.00
2019-04-10T01:34:37.956Z,0.00
2019-04-10T01:35:38.288Z,0.00
2019-04-10T01:36:37.515Z,0.00
2019-04-10T01:37:48.754Z,0.00
2019-04-10T01:38:37.797Z,0.00
2019-04-10T01:39:38.092Z,0.00
2019-04-10T01:40:37.409Z,0.00
2019-04-10T01:41:37.337Z,0.00
2019-04-10T01:42:37.361Z,0.00
2019-04-10T01:43:37.388Z,0.00
2019-04-10T01:44:38.493Z,0.00
2019-04-10T01:45:37.695Z,0.00
2019-04-10T01:46:38.126Z,0.00
2019-04-10T01:47:37.491Z,0.00
2019-04-10T01:48:37.520Z,0.00
2019-04-10T01:49:37.909Z,0.00
2019-04-10T01:50:37.572Z,0.00
2019-04-10T01:51:37.593Z,0.00
2019-04-10T01:52:37.619Z,0.00
2019-04-10T01:53:37.754Z,0.00
2019-04-10T01:54:37.671Z,0.00
2019-04-10T01:55:38.750Z,0.00
2019-04-10T01:56:37.777Z,0.00
2019-04-10T01:57:38.634Z,0.00
2019-04-10T01:58:37.770Z,0.00
2019-04-10T01:59:38.207Z,0.00
2019-04-10T02:00:37.823Z,0.00
2019-04-10T02:01:38.717Z,0.00
2019-04-10T02:02:37.874Z,0.00
2019-04-10T02:03:38.283Z,0.00
2019-04-10T02:04:37.927Z,0.00
2019-04-10T02:05:38.762Z,0.00
2019-04-10T02:06:37.982Z,0.00
2019-04-10T02:07:38.265Z,0.00
2019-04-10T02:08:38.276Z,0.00
2019-04-10T02:09:38.055Z,0.00
2019-04-10T02:10:38.423Z,0.00
2019-04-10T02:11:38.103Z,0.00
2019-04-10T02:12:38.862Z,0.00
2019-04-10T02:13:39.189Z,0.00
2019-04-10T02:14:38.594Z,0.00
2019-04-10T02:15:38.500Z,0.00
2019-04-10T02:16:39.057Z,0.00
2019-04-10T02:17:38.980Z,0.00
2019-04-10T02:18:38.444Z,0.00
2019-04-10T02:19:38.526Z,0.00
2019-04-10T02:20:38.910Z,0.00
2019-04-10T02:21:38.359Z,0.00
2019-04-10T02:22:38.527Z,0.00
2019-04-10T02:23:38.622Z,0.00
2019-04-10T02:24:38.920Z,0.00
2019-04-10T02:25:39.067Z,0.00
2019-04-10T02:26:38.489Z,0.00
2019-04-10T02:27:38.516Z,0.00
2019-04-10T02:28:39.454Z,0.00
2019-04-10T02:29:38.569Z,0.00
2019-04-10T02:30:39.580Z,0.00
2019-04-10T02:31:39.207Z,0.00
2019-04-10T02:32:39.442Z,0.00
2019-04-10T02:33:38.877Z,0.00
2019-04-10T02:34:39.366Z,0.00
2019-04-10T02:35:40.044Z,0.00
2019-04-10T02:36:39.098Z,0.00
2019-04-10T02:37:39.601Z,0.00
2019-04-10T02:38:54.499Z,0.00
2019-04-10T02:39:46.077Z,0.00
2019-04-10T02:40:39.278Z,0.00
2019-04-10T02:41:38.880Z,0.00
2019-04-10T02:42:38.905Z,0.00
2019-04-10T02:43:39.883Z,0.00
2019-04-10T02:44:39.216Z,0.00
2019-04-10T02:45:40.369Z,0.00
2019-04-10T02:46:39.003Z,0.00
2019-04-10T02:47:39.148Z,0.00
2019-04-10T02:48:39.398Z,0.00
2019-04-10T02:49:40.361Z,0.00
2019-04-10T02:50:40.630Z,0.00
2019-04-10T02:51:39.137Z,0.00
2019-04-10T02:52:41.173Z,0.00
2019-04-10T02:53:39.427Z,0.00
2019-04-10T02:54:39.732Z,0.00
2019-04-10T02:55:40.535Z,0.00
2019-04-10T02:56:40.833Z,0.00
2019-04-10T02:57:39.293Z,0.00
2019-04-10T02:58:40.173Z,4.00
2019-04-10T02:59:39.737Z,0.00
2019-04-10T03:00:39.498Z,4.00
2019-04-10T03:01:39.949Z,4.00
2019-04-10T03:02:41.558Z,4.00
2019-04-10T03:03:40.324Z,8.00
2019-04-10T03:04:40.478Z,4.00
2019-04-10T03:05:40.667Z,4.00
2019-04-10T03:06:39.851Z,0.00
2019-04-10T03:07:40.319Z,4.00
2019-04-10T03:08:54.987Z,4.00
2019-04-10T03:09:52.852Z,8.00
2019-04-10T03:10:47.444Z,8.00
2019-04-10T03:11:39.752Z,8.00
2019-04-10T03:12:41.041Z,4.00
2019-04-10T03:13:39.704Z,8.00
2019-04-10T03:14:41.495Z,8.00
2019-04-10T03:15:40.928Z,8.00
2019-04-10T03:16:39.783Z,12.00
2019-04-10T03:17:40.098Z,12.00
2019-04-10T03:18:39.831Z,16.00
2019-04-10T03:19:39.860Z,16.00
2019-04-10T03:20:40.535Z,24.00
2019-04-10T03:21:39.915Z,28.00
2019-04-10T03:22:40.960Z,36.00
2019-04-10T03:23:39.973Z,40.00
2019-04-10T03:24:40.186Z,48.00
2019-04-10T03:25:40.025Z,44.00
2019-04-10T03:26:40.040Z,48.00
2019-04-10T03:27:40.700Z,56.00
2019-04-10T03:28:40.942Z,56.00
2019-04-10T03:29:40.118Z,56.00
2019-04-10T03:30:41.538Z,56.00
2019-04-10T03:31:41.194Z,60.00
2019-04-10T03:32:44.451Z,68.00
2019-04-10T03:33:44.629Z,76.00
2019-04-10T03:34:42.708Z,80.00
2019-04-10T03:35:41.026Z,100.00
2019-04-10T03:36:40.302Z,112.00
2019-04-10T03:37:40.390Z,124.00
2019-04-10T03:38:54.526Z,136.00
2019-04-10T03:39:40.579Z,164.00
2019-04-10T03:40:40.403Z,188.00
2019-04-10T03:41:40.431Z,236.00
2019-04-10T03:42:41.280Z,312.00
2019-04-10T03:43:41.604Z,404.00
2019-04-10T03:44:40.960Z,468.00
2019-04-10T03:45:41.112Z,528.00
2019-04-10T03:46:40.571Z,576.00
2019-04-10T03:47:41.749Z,620.00
2019-04-10T03:48:41.038Z,660.00
2019-04-10T03:49:40.641Z,700.00
2019-04-10T03:50:41.652Z,720.00
2019-04-10T03:51:40.887Z,700.00
2019-04-10T03:52:41.160Z,692.00
2019-04-10T03:53:40.741Z,752.00
2019-04-10T03:54:40.767Z,752.00
2019-04-10T03:55:41.043Z,784.00
2019-04-10T03:56:40.822Z,824.00
2019-04-10T03:57:40.848Z,884.00
2019-04-10T03:58:41.685Z,896.00
2019-04-10T03:59:42.071Z,920.00
2019-04-10T04:00:40.924Z,948.00
2019-04-10T04:01:41.014Z,1056.00
2019-04-10T04:02:41.914Z,1076.00
2019-04-10T04:03:41.003Z,1080.00
2019-04-10T04:04:41.768Z,1148.00
2019-04-10T04:05:41.054Z,1300.00
2019-04-10T04:06:41.975Z,1384.00
2019-04-10T04:07:41.129Z,1488.00
2019-04-10T04:08:41.132Z,1624.00
2019-04-10T04:09:41.861Z,1704.00
2019-04-10T04:10:41.184Z,1704.00
2019-04-10T04:11:42.007Z,1780.00
2019-04-10T04:12:41.237Z,1824.00
2019-04-10T04:13:41.728Z,1820.00
2019-04-10T04:14:41.290Z,1640.00
2019-04-10T04:15:42.130Z,1776.00
2019-04-10T04:16:41.565Z,1948.00
2019-04-10T04:17:41.367Z,2004.00
2019-04-10T04:18:41.548Z,2024.00
2019-04-10T04:19:42.109Z,2120.00
2019-04-10T04:20:41.451Z,2204.00
2019-04-10T04:21:41.831Z,2324.00
2019-04-10T04:22:41.497Z,2576.00
2019-04-10T04:23:42.604Z,2688.00
2019-04-10T04:24:41.984Z,2684.00
2019-04-10T04:25:41.578Z,2616.00
2019-04-10T04:26:41.604Z,2540.00
2019-04-10T04:27:42.054Z,2524.00
2019-04-10T04:28:41.895Z,2580.00
2019-04-10T04:29:41.682Z,2608.00
2019-04-10T04:30:41.982Z,2640.00
2019-04-10T04:31:42.000Z,2808.00
2019-04-10T04:32:42.068Z,2936.00
2019-04-10T04:33:41.788Z,3144.00
2019-04-10T04:34:41.815Z,3372.00
2019-04-10T04:35:42.822Z,3592.00
2019-04-10T04:36:42.951Z,3808.00
2019-04-10T04:37:42.257Z,3996.00
2019-04-10T04:38:41.920Z,4180.00
2019-04-10T04:39:41.948Z,4364.00
2019-04-10T04:40:42.096Z,4480.00
2019-04-10T04:41:42.261Z,4532.00
2019-04-10T04:42:42.729Z,4576.00
2019-04-10T04:43:44.456Z,4620.00
2019-04-10T04:44:42.080Z,4660.00
2019-04-10T04:45:42.282Z,4792.00
2019-04-10T04:46:42.912Z,4836.00
2019-04-10T04:47:43.257Z,4792.00
2019-04-10T04:48:43.294Z,4616.00
2019-04-10T04:49:42.213Z,4600.00
2019-04-10T04:50:42.236Z,4584.00
2019-04-10T04:51:42.268Z,4100.00
2019-04-10T04:52:43.437Z,4056.00
2019-04-10T04:53:42.320Z,4428.00
2019-04-10T04:54:43.316Z,4020.00
2019-04-10T04:55:42.848Z,3600.00
2019-04-10T04:56:42.397Z,3060.00
2019-04-10T04:57:42.426Z,2904.00
2019-04-10T04:58:43.439Z,3244.00
2019-04-10T04:59:42.774Z,3548.00
2019-04-10T05:00:42.508Z,3408.00
2019-04-10T05:01:42.585Z,3424.00
2019-04-10T05:02:42.723Z,3432.00
2019-04-10T05:03:42.583Z,4148.00
2019-04-10T05:04:43.611Z,4052.00
2019-04-10T05:05:43.339Z,3768.00
2019-04-10T05:06:43.646Z,3788.00
2019-04-10T05:07:54.150Z,3580.00
2019-04-10T05:08:42.716Z,3544.00
2019-04-10T05:09:43.887Z,3680.00
2019-04-10T05:10:42.772Z,3908.00
2019-04-10T05:11:42.808Z,4276.00
2019-04-10T05:12:43.610Z,4556.00
2019-04-10T05:13:42.848Z,4416.00
2019-04-10T05:14:43.959Z,4116.00
2019-04-10T05:15:42.902Z,3804.00
2019-04-10T05:16:43.679Z,3304.00
2019-04-10T05:17:42.955Z,3396.00
2019-04-10T05:18:43.571Z,3520.00
2019-04-10T05:19:43.009Z,3868.00
2019-04-10T05:20:47.219Z,5148.00
2019-04-10T05:21:43.641Z,5600.00
2019-04-10T05:22:43.627Z,5168.00
2019-04-10T05:23:43.115Z,4820.00
2019-04-10T05:24:43.144Z,4900.00
2019-04-10T05:25:43.446Z,4608.00
2019-04-10T05:26:43.198Z,4708.00
2019-04-10T05:27:43.491Z,4940.00
2019-04-10T05:28:43.250Z,4608.00
2019-04-10T05:29:43.282Z,5084.00
2019-04-10T05:30:43.303Z,6260.00
2019-04-10T05:31:43.329Z,7212.00
2019-04-10T05:32:43.763Z,7040.00
2019-04-10T05:33:43.386Z,5632.00
2019-04-10T05:34:44.655Z,3984.00
2019-04-10T05:35:43.921Z,3804.00
2019-04-10T05:36:44.120Z,3804.00
2019-04-10T05:37:43.592Z,3436.00
2019-04-10T05:38:43.983Z,3856.00
2019-04-10T05:39:50.271Z,4876.00
2019-04-10T05:40:44.286Z,6620.00
2019-04-10T05:41:44.011Z,7492.00
2019-04-10T05:42:43.624Z,7032.00
2019-04-10T05:43:44.619Z,6988.00
2019-04-10T05:44:44.378Z,7124.00
2019-04-10T05:45:43.705Z,7764.00
2019-04-10T05:46:43.734Z,8524.00
2019-04-10T05:47:44.442Z,9016.00
2019-04-10T05:48:44.094Z,9504.00
2019-04-10T05:49:45.001Z,9784.00
2019-04-10T05:50:53.967Z,9772.00
2019-04-10T05:51:43.868Z,10172.00
2019-04-10T05:52:44.897Z,10752.00
2019-04-10T05:53:44.877Z,10280.00
2019-04-10T05:54:43.950Z,9808.00
2019-04-10T05:55:44.986Z,10444.00
2019-04-10T05:56:44.798Z,11328.00
2019-04-10T05:57:44.818Z,11448.00
2019-04-10T05:58:44.859Z,11352.00
2019-04-10T05:59:44.087Z,11268.00
2019-04-10T06:00:45.036Z,11024.00
2019-04-10T06:01:44.659Z,10448.00
2019-04-10T06:02:44.171Z,8956.00
2019-04-10T06:03:45.647Z,8476.00
2019-04-10T06:04:44.226Z,8200.00
2019-04-10T06:05:44.532Z,7192.00
2019-04-10T06:06:44.371Z,6820.00
2019-04-10T06:07:45.383Z,6228.00
2019-04-10T06:08:44.335Z,4784.00
2019-04-10T06:09:54.811Z,4856.00
2019-04-10T06:10:44.653Z,5284.00
2019-04-10T06:11:45.753Z,5712.00
2019-04-10T06:12:44.747Z,6644.00
2019-04-10T06:13:45.181Z,7548.00
2019-04-10T06:14:44.506Z,6812.00
2019-04-10T06:15:45.431Z,6004.00
2019-04-10T06:16:44.781Z,5648.00
2019-04-10T06:17:44.910Z,6532.00
2019-04-10T06:18:45.158Z,7172.00
2019-04-10T06:19:44.834Z,7940.00
2019-04-10T06:20:45.285Z,8856.00
2019-04-10T06:21:44.695Z,10300.00
2019-04-10T06:22:45.505Z,12020.00
2019-04-10T06:23:44.748Z,13576.00
2019-04-10T06:24:44.779Z,13328.00
2019-04-10T06:25:45.812Z,12948.00
2019-04-10T06:26:45.875Z,14208.00
2019-04-10T06:27:45.084Z,14000.00
2019-04-10T06:28:44.925Z,13172.00
2019-04-10T06:29:46.146Z,13908.00
2019-04-10T06:30:44.938Z,12980.00
2019-04-10T06:31:45.154Z,9844.00
2019-04-10T06:32:45.448Z,7120.00
2019-04-10T06:33:45.022Z,7404.00
2019-04-10T06:34:46.108Z,7956.00
2019-04-10T06:35:45.080Z,7576.00
2019-04-10T06:36:45.891Z,7848.00
2019-04-10T06:37:46.280Z,8404.00
2019-04-10T06:38:45.433Z,8656.00
2019-04-10T06:39:46.416Z,8504.00
2019-04-10T06:40:46.067Z,8372.00
2019-04-10T06:41:45.243Z,7216.00
2019-04-10T06:42:50.232Z,6588.00
2019-04-10T06:43:45.410Z,6404.00
2019-04-10T06:44:46.045Z,6392.00
2019-04-10T06:45:46.178Z,6548.00
2019-04-10T06:46:46.482Z,6912.00
2019-04-10T06:47:46.544Z,7200.00
2019-04-10T06:48:45.440Z,7304.00
2019-04-10T06:49:45.722Z,7408.00
2019-04-10T06:50:45.961Z,8008.00
2019-04-10T06:51:45.522Z,8584.00
2019-04-10T06:52:45.548Z,9208.00
2019-04-10T06:53:45.574Z,9796.00
2019-04-10T06:54:45.602Z,9948.00
2019-04-10T06:55:46.786Z,9848.00
2019-04-10T06:56:48.286Z,10060.00
2019-04-10T06:57:49.150Z,10312.00
2019-04-10T06:58:45.711Z,10472.00
2019-04-10T06:59:46.106Z,10756.00
2019-04-10T07:00:48.655Z,10928.00
2019-04-10T07:01:51.361Z,11084.00
2019-04-10T07:02:46.290Z,11888.00
2019-04-10T07:03:56.586Z,13008.00
2019-04-10T07:04:53.088Z,13476.00
2019-04-10T07:06:01.366Z,13036.00
2019-04-10T07:06:55.945Z,12452.00
2019-04-10T07:07:51.982Z,11680.00
2019-04-10T07:08:48.890Z,12444.00
2019-04-10T07:09:46.015Z,14152.00
2019-04-10T07:10:53.642Z,15136.00
2019-04-10T07:11:47.935Z,15176.00
2019-04-10T07:12:46.101Z,13928.00
2019-04-10T07:13:46.125Z,12364.00
2019-04-10T07:14:49.318Z,10808.00
2019-04-10T07:15:46.920Z,10968.00
2019-04-10T07:16:46.212Z,11164.00
2019-04-10T07:17:47.127Z,12648.00
2019-04-10T07:18:49.007Z,13108.00
2019-04-10T07:19:46.296Z,12368.00
2019-04-10T07:20:47.474Z,12100.00
2019-04-10T07:21:47.094Z,10488.00
2019-04-10T07:22:47.217Z,10220.00
2019-04-10T07:23:46.929Z,11132.00
2019-04-10T07:24:46.435Z,11664.00
2019-04-10T07:25:47.256Z,12884.00
2019-04-10T07:26:48.147Z,13704.00
2019-04-10T07:27:46.520Z,13692.00
2019-04-10T07:28:47.861Z,15568.00
2019-04-10T07:29:50.767Z,16340.00
2019-04-10T07:30:47.716Z,19776.00
2019-04-10T07:31:46.721Z,23776.00
2019-04-10T07:32:48.994Z,27168.00
2019-04-10T07:33:50.104Z,31200.00
2019-04-10T07:34:46.779Z,33248.00
2019-04-10T07:35:46.748Z,31840.00
2019-04-10T07:36:46.918Z,34336.00
2019-04-10T07:37:49.058Z,35104.00
2019-04-10T07:38:46.957Z,34112.00
2019-04-10T07:39:46.883Z,35072.00
2019-04-10T07:40:47.044Z,30560.00
2019-04-10T07:41:47.345Z,32896.00
2019-04-10T07:42:46.959Z,29440.00
2019-04-10T07:43:52.477Z,30112.00
2019-04-10T07:44:47.012Z,31296.00
2019-04-10T07:45:47.046Z,32992.00
2019-04-10T07:46:47.077Z,32064.00
2019-04-10T07:47:48.212Z,32160.00
2019-04-10T07:48:47.136Z,33408.00
2019-04-10T07:49:48.244Z,33888.00
2019-04-10T07:50:48.462Z,31936.00
2019-04-10T07:51:48.485Z,39392.00
2019-04-10T07:52:47.873Z,32768.00
2019-04-10T07:53:47.288Z,39200.00
2019-04-10T07:54:48.170Z,32832.00
2019-04-10T07:56:00.450Z,32480.00
2019-04-10T07:56:47.384Z,31872.00
2019-04-10T07:57:49.275Z,55584.00
2019-04-10T07:58:48.254Z,38784.00
2019-04-10T07:59:47.526Z,33152.00
2019-04-10T08:00:47.518Z,61856.00
2019-04-10T08:01:47.544Z,60800.00
2019-04-10T08:02:47.576Z,61056.00
2019-04-10T08:03:47.929Z,23360.00
2019-04-10T08:04:47.641Z,55168.00
2019-04-10T08:05:48.171Z,63072.00
2019-04-10T08:06:47.711Z,57568.00
2019-04-10T08:07:47.756Z,67232.00
2019-04-10T08:08:47.775Z,69184.00
2019-04-10T08:09:47.809Z,71200.00
2019-04-10T08:10:48.773Z,76768.00
2019-04-10T08:11:48.882Z,35328.00
2019-04-10T08:12:53.039Z,38592.00
2019-04-10T08:13:49.119Z,34112.00
2019-04-10T08:14:48.495Z,40320.00
2019-04-10T08:15:48.022Z,63712.00
2019-04-10T08:16:48.055Z,41664.00
2019-04-10T08:17:50.466Z,31488.00
2019-04-10T08:18:48.122Z,30336.00
2019-04-10T08:19:48.779Z,29024.00
2019-04-10T08:20:48.860Z,29312.00
2019-04-10T08:21:49.133Z,29664.00
2019-04-10T08:22:48.264Z,30592.00
2019-04-10T08:23:48.580Z,31648.00
2019-04-10T08:24:49.160Z,32608.00
2019-04-10T08:25:49.498Z,30944.00
2019-04-10T08:26:49.275Z,29248.00
2019-04-10T08:27:48.433Z,27936.00
2019-04-10T08:28:49.596Z,27104.00
2019-04-10T08:29:48.557Z,27200.00
2019-04-10T08:30:48.535Z,27008.00
2019-04-10T08:31:48.570Z,26784.00
2019-04-10T08:32:57.202Z,25888.00
2019-04-10T08:33:48.631Z,25472.00
2019-04-10T08:34:49.806Z,25376.00
2019-04-10T08:35:49.513Z,25728.00
2019-04-10T08:36:51.442Z,25856.00
2019-04-10T08:37:48.899Z,26080.00
2019-04-10T08:38:49.005Z,26656.00
2019-04-10T08:39:50.579Z,28128.00
2019-04-10T08:40:48.865Z,25920.00
2019-04-10T08:41:50.030Z,24640.00
2019-04-10T08:42:49.237Z,21600.00
2019-04-10T08:43:50.174Z,18784.00
2019-04-10T08:44:48.990Z,16560.00
2019-04-10T08:45:52.063Z,14656.00
2019-04-10T08:46:49.057Z,13536.00
2019-04-10T08:47:49.089Z,13432.00
2019-04-10T08:48:49.822Z,12812.00
2019-04-10T08:49:49.442Z,11936.00
2019-04-10T08:50:50.278Z,11188.00
2019-04-10T08:51:49.995Z,10740.00
2019-04-10T08:52:49.244Z,10708.00
2019-04-10T08:53:49.272Z,10900.00
2019-04-10T08:54:49.305Z,11136.00
2019-04-10T08:55:50.426Z,11448.00
2019-04-10T08:56:49.367Z,11780.00
2019-04-10T08:57:50.285Z,12080.00
2019-04-10T08:58:49.761Z,12408.00
2019-04-10T08:59:49.455Z,12820.00
2019-04-10T09:00:50.978Z,13260.00
2019-04-10T09:01:49.515Z,13668.00
2019-04-10T09:02:50.527Z,14020.00
2019-04-10T09:03:49.584Z,14332.00
2019-04-10T09:04:49.605Z,14668.00
2019-04-10T09:05:49.635Z,14924.00
2019-04-10T09:06:49.669Z,15028.00
2019-04-10T09:07:50.642Z,14968.00
2019-04-10T09:08:50.854Z,14904.00
2019-04-10T09:09:49.955Z,14852.00
2019-04-10T09:10:50.416Z,14968.00
2019-04-10T09:11:49.812Z,15200.00
2019-04-10T09:12:49.841Z,15488.00
2019-04-10T09:13:49.869Z,15880.00
2019-04-10T09:14:49.899Z,16360.00
2019-04-10T09:15:50.032Z,16612.00
2019-04-10T09:16:50.993Z,16856.00
2019-04-10T09:17:49.989Z,17184.00
2019-04-10T09:18:50.015Z,17248.00
2019-04-10T09:19:50.044Z,16752.00
2019-04-10T09:20:50.996Z,16844.00
2019-04-10T09:21:50.105Z,17248.00
2019-04-10T09:23:14.636Z,17472.00
2019-04-10T09:23:52.909Z,17440.00
2019-04-10T09:24:50.789Z,17760.00
2019-04-10T09:25:51.260Z,18400.00
2019-04-10T09:26:50.795Z,19296.00
2019-04-10T09:27:50.277Z,20384.00
2019-04-10T09:28:50.790Z,21408.00
2019-04-10T09:29:50.339Z,22240.00
2019-04-10T09:30:51.308Z,22816.00
2019-04-10T09:31:50.397Z,23008.00
2019-04-10T09:32:50.680Z,23200.00
2019-04-10T09:33:51.489Z,23744.00
2019-04-10T09:34:50.482Z,24704.00
2019-04-10T09:35:50.935Z,25952.00
2019-04-10T09:36:51.394Z,27520.00
2019-04-10T09:37:50.571Z,29184.00
2019-04-10T09:38:50.848Z,32352.00
2019-04-10T09:39:52.393Z,29376.00
2019-04-10T09:40:50.660Z,28416.00
2019-04-10T09:41:50.697Z,27520.00
2019-04-10T09:42:50.724Z,26944.00
2019-04-10T09:43:50.818Z,27104.00
2019-04-10T09:44:50.780Z,27648.00
2019-04-10T09:45:51.480Z,28256.00
2019-04-10T09:46:51.704Z,28160.00
2019-04-10T09:47:50.871Z,28000.00
2019-04-10T09:48:52.005Z,28128.00
2019-04-10T09:49:51.422Z,28320.00
2019-04-10T09:50:50.965Z,28640.00
2019-04-10T09:51:51.295Z,28928.00
2019-04-10T09:52:51.026Z,29984.00
2019-04-10T09:53:51.171Z,31584.00
2019-04-10T09:54:51.131Z,31968.00
2019-04-10T09:55:51.118Z,32320.00
2019-04-10T09:56:51.150Z,31552.00
2019-04-10T09:57:51.852Z,30144.00
2019-04-10T09:58:51.903Z,28896.00
2019-04-10T09:59:52.445Z,28576.00
2019-04-10T10:00:52.242Z,28448.00
2019-04-10T10:01:51.465Z,28384.00
2019-04-10T10:02:51.344Z,28320.00
2019-04-10T10:03:51.368Z,28192.00
2019-04-10T10:04:51.400Z,28128.00
2019-04-10T10:05:51.431Z,28288.00
2019-04-10T10:06:51.538Z,28224.00
2019-04-10T10:07:51.494Z,28640.00
2019-04-10T10:08:52.323Z,29280.00
2019-04-10T10:09:51.556Z,29408.00
2019-04-10T10:10:51.588Z,29472.00
2019-04-10T10:11:51.626Z,29888.00
2019-04-10T10:12:52.608Z,30496.00
2019-04-10T10:13:52.293Z,30880.00
2019-04-10T10:14:51.971Z,31168.00
2019-04-10T10:15:51.748Z,31392.00
2019-04-10T10:16:52.619Z,31744.00
2019-04-10T10:17:52.833Z,32000.00
2019-04-10T10:18:52.005Z,32128.00
2019-04-10T10:19:53.549Z,31520.00
2019-04-10T10:20:52.283Z,31232.00
2019-04-10T10:21:52.560Z,31008.00
2019-04-10T10:22:51.973Z,31168.00
2019-04-10T10:23:52.091Z,31584.00
2019-04-10T10:24:53.022Z,31872.00
2019-04-10T10:25:53.221Z,31840.00
2019-04-10T10:26:52.105Z,31456.00
2019-04-10T10:27:52.133Z,31456.00
2019-04-10T10:28:52.510Z,33152.00
2019-04-10T10:29:53.507Z,34240.00
2019-04-10T10:30:52.229Z,36160.00
2019-04-10T10:31:53.600Z,44032.00
2019-04-10T10:32:53.167Z,34880.00
2019-04-10T10:33:52.325Z,35904.00
2019-04-10T10:34:52.521Z,35840.00
2019-04-10T10:35:53.416Z,35104.00
2019-04-10T10:36:53.302Z,34816.00
2019-04-10T10:37:52.680Z,32800.00
2019-04-10T10:39:03.425Z,31136.00
2019-04-10T10:39:52.842Z,30432.00
2019-04-10T10:40:52.898Z,28320.00
2019-04-10T10:41:52.590Z,26048.00
2019-04-10T10:42:52.624Z,24256.00
2019-04-10T10:43:52.973Z,23456.00
2019-04-10T10:44:52.687Z,23264.00
2019-04-10T10:45:53.407Z,23104.00
2019-04-10T10:46:52.754Z,23136.00
2019-04-10T10:47:52.787Z,23136.00
2019-04-10T10:48:53.816Z,23136.00
2019-04-10T10:49:52.904Z,23872.00
2019-04-10T10:50:53.305Z,24800.00
2019-04-10T10:51:53.287Z,25344.00
2019-04-10T10:52:52.951Z,25600.00
2019-04-10T10:53:52.979Z,25856.00
2019-04-10T10:54:53.511Z,26176.00
2019-04-10T10:55:53.961Z,26080.00
2019-04-10T10:56:53.078Z,24512.00
2019-04-10T10:57:53.342Z,22976.00
2019-04-10T10:58:54.288Z,21632.00
2019-04-10T10:59:53.625Z,20192.00
2019-04-10T11:00:53.707Z,19520.00
2019-04-10T11:01:53.862Z,20000.00
2019-04-10T11:02:54.014Z,21216.00
2019-04-10T11:03:54.200Z,21952.00
2019-04-10T11:04:53.899Z,21920.00
2019-04-10T11:05:53.366Z,21824.00
2019-04-10T11:06:59.371Z,21856.00
2019-04-10T11:07:53.429Z,21760.00
2019-04-10T11:08:53.752Z,21472.00
2019-04-10T11:09:54.383Z,21152.00
2019-04-10T11:10:56.046Z,20832.00
2019-04-10T11:11:53.775Z,20512.00
2019-04-10T11:12:55.172Z,20192.00
2019-04-10T11:13:53.618Z,19936.00
2019-04-10T11:14:53.761Z,19712.00
2019-04-10T11:15:53.684Z,19328.00
2019-04-10T11:16:53.813Z,18944.00
2019-04-10T11:17:53.936Z,18688.00
2019-04-10T11:18:54.952Z,18528.00
2019-04-10T11:19:53.807Z,18464.00
2019-04-10T11:20:59.316Z,18656.00
2019-04-10T11:21:54.740Z,19008.00
2019-04-10T11:22:53.898Z,19488.00
2019-04-10T11:23:55.501Z,19712.00
2019-04-10T11:24:53.960Z,19584.00
2019-04-10T11:25:55.864Z,19264.00
2019-04-10T11:26:54.093Z,19200.00
2019-04-10T11:27:54.071Z,19744.00
2019-04-10T11:28:55.734Z,20768.00
2019-04-10T11:29:55.051Z,21856.00
2019-04-10T11:30:54.143Z,22560.00
2019-04-10T11:31:55.491Z,23360.00
2019-04-10T11:32:54.942Z,24480.00
2019-04-10T11:34:55.546Z,27520.00
2019-04-10T11:35:55.243Z,29312.00
2019-04-10T11:37:12.980Z,31168.00
2019-04-10T11:37:59.085Z,31840.00
2019-04-10T11:38:55.989Z,32576.00
2019-04-10T11:39:54.674Z,32768.00
2019-04-10T11:40:57.624Z,32608.00
2019-04-10T11:41:55.266Z,32832.00
2019-04-10T11:42:55.556Z,33536.00
2019-04-10T11:43:56.100Z,34368.00
2019-04-10T11:44:55.444Z,34304.00
2019-04-10T11:45:58.188Z,34400.00
2019-04-10T11:46:55.600Z,34592.00
2019-04-10T11:47:54.670Z,35392.00
2019-04-10T11:48:55.534Z,36096.00
2019-04-10T11:49:57.625Z,36544.00
2019-04-10T11:50:59.022Z,36416.00
2019-04-10T11:51:56.711Z,36096.00
2019-04-10T11:52:56.762Z,35360.00
2019-04-10T11:53:56.876Z,35520.00
2019-04-10T11:55:05.161Z,34880.00
2019-04-10T11:55:57.001Z,31616.00
2019-04-10T11:56:58.356Z,30016.00
2019-04-10T11:57:57.655Z,28160.00
2019-04-10T11:58:56.883Z,27872.00
2019-04-10T11:59:56.928Z,29152.00
2019-04-10T12:00:58.067Z,30048.00
2019-04-10T12:01:58.967Z,28320.00
2019-04-10T12:02:57.252Z,28480.00
2019-04-10T12:03:56.802Z,26176.00
2019-04-10T12:05:01.663Z,24160.00
2019-04-10T12:05:57.206Z,23584.00
2019-04-10T12:06:57.386Z,25312.00
2019-04-10T12:08:26.023Z,28576.00
2019-04-10T12:09:19.504Z,30752.00
2019-04-10T12:11:55.452Z,32608.00
2019-04-10T12:12:55.475Z,33856.00
2019-04-10T12:13:56.689Z,34112.00
2019-04-10T12:14:56.193Z,33536.00
2019-04-10T12:15:56.627Z,31360.00
2019-04-10T12:16:55.850Z,28960.00
2019-04-10T12:17:55.643Z,25664.00
2019-04-10T12:18:56.397Z,22624.00